Time;durP1;ratioP1;P1;durP2;ratioP2;P2;SDS_P1;SDS_P2;PMS_P1;PMS_P2;Temp;Humidity;BMP_temperature;BMP_pressure;BME280_temperature;BME280_humidity;BME280_pressure;Samples;Min_cycle;Max_cycle;Signal;HPM_P1;HPM_P2
2023/10/29 00:01:49;;;;;;;4.63;2.77;;;10.60;89.40;;;10.03;87.89;96701.56;4956495;28;20573;-74
2023/10/29 00:04:17;;;;;;;5.80;2.70;;;10.60;88.90;;;10.06;87.70;96709.16;4950170;28;20452;-75
2023/10/29 00:06:44;;;;;;;6.83;2.97;;;10.60;88.40;;;10.18;86.27;96709.91;4952397;28;20460;-76
2023/10/29 00:09:11;;;;;;;5.70;2.57;;;10.70;87.70;;;10.02;85.82;96662.97;4956321;28;20461;-75
2023/10/29 00:11:39;;;;;;;3.70;2.50;;;10.80;87.50;;;10.19;85.93;96694.53;4968050;28;20555;-73
2023/10/29 00:14:10;;;;;;;2.77;2.20;;;10.80;87.20;;;10.24;86.08;96688.41;4968990;28;21025;-75
2023/10/29 00:16:37;;;;;;;3.50;2.20;;;10.80;87.30;;;10.24;85.68;96685.72;4968680;28;20557;-76
2023/10/29 00:19:04;;;;;;;5.60;3.90;;;10.80;87.10;;;10.28;85.47;96692.25;4953332;28;20545;-75
2023/10/29 00:21:34;;;;;;;3.77;2.73;;;10.80;87.10;;;10.27;84.77;96699.50;4967153;28;21191;-74
2023/10/29 00:24:01;;;;;;;4.60;2.53;;;10.80;86.50;;;10.36;84.08;96699.91;4968326;28;21393;-75
2023/10/29 00:26:28;;;;;;;4.30;2.43;;;10.80;86.60;;;10.33;84.17;96697.72;4964762;28;20457;-74
2023/10/29 00:28:56;;;;;;;2.70;2.13;;;10.90;86.10;;;10.36;84.39;96705.31;4965891;28;20457;-75
2023/10/29 00:31:24;;;;;;;4.53;1.70;;;10.90;86.30;;;10.39;84.93;96707.56;4966054;28;20454;-75
2023/10/29 00:33:52;;;;;;;4.30;2.60;;;10.90;86.80;;;10.37;84.50;96700.75;4955932;28;20657;-72
2023/10/29 00:36:19;;;;;;;3.00;2.07;;;10.90;86.50;;;10.37;84.05;96723.16;4952796;28;20485;-75
2023/10/29 00:38:46;;;;;;;5.40;2.30;;;10.80;86.10;;;10.49;84.01;96715.81;4949352;28;21173;-75
2023/10/29 00:41:13;;;;;;;3.17;2.10;;;10.90;86.60;;;10.57;83.93;96722.69;4966352;28;20485;-75
2023/10/29 00:43:43;;;;;;;4.47;2.10;;;10.90;86.50;;;10.66;83.40;96714.19;4962572;28;20461;-74
2023/10/29 00:46:14;;;;;;;3.83;2.30;;;11.00;86.50;;;10.62;84.00;96708.44;4966782;28;20923;-75
2023/10/29 00:48:44;;;;;;;2.90;2.00;;;10.90;86.70;;;10.39;84.28;96683.25;4947783;28;20505;-72
2023/10/29 00:51:12;;;;;;;4.10;2.50;;;11.00;86.80;;;10.67;83.80;96713.91;4963080;28;20458;-75
2023/10/29 00:53:40;;;;;;;6.10;2.47;;;10.90;86.40;;;10.67;82.68;96716.63;4959350;28;20454;-76
2023/10/29 00:56:08;;;;;;;5.73;2.57;;;11.00;86.00;;;10.67;81.91;96711.22;4968934;28;20454;-74
2023/10/29 00:58:36;;;;;;;5.60;2.50;;;11.10;85.60;;;10.62;81.63;96708.44;4949634;28;20518;-75
2023/10/29 01:01:04;;;;;;;3.87;2.37;;;11.10;85.10;;;10.47;82.28;96704.44;4951868;28;21422;-75
2023/10/29 01:03:31;;;;;;;3.63;2.27;;;11.00;85.20;;;10.42;82.16;96687.34;4969196;28;20449;-73
2023/10/29 01:06:00;;;;;;;2.73;2.37;;;11.00;85.20;;;10.48;81.92;96692.59;4966165;28;20470;-75
2023/10/29 01:08:27;;;;;;;2.17;1.97;;;11.00;85.00;;;10.47;82.73;96679.34;4948466;28;20462;-74
2023/10/29 01:10:55;;;;;;;2.33;1.93;;;11.00;85.40;;;10.51;82.48;96683.19;4962006;28;21026;-74
2023/10/29 01:13:22;;;;;;;4.50;2.60;;;11.00;85.30;;;10.48;83.25;96681.78;4967126;28;20467;-75
2023/10/29 01:15:49;;;;;;;6.03;2.70;;;10.90;85.50;;;10.41;83.29;96683.84;4965650;28;20451;-74
2023/10/29 01:18:16;;;;;;;3.47;2.10;;;11.00;85.40;;;10.51;83.02;96695.84;4963771;28;20473;-73
2023/10/29 01:20:44;;;;;;;2.23;2.00;;;11.00;85.50;;;10.57;82.99;96689.47;4959023;28;20514;-75
2023/10/29 01:23:13;;;;;;;4.67;2.70;;;10.90;85.60;;;10.47;83.40;96688.25;4958495;28;20971;-74
2023/10/29 01:25:41;;;;;;;4.13;2.73;;;10.90;85.50;;;10.47;83.10;96677.44;4963630;28;20463;-73
2023/10/29 01:28:08;;;;;;;4.07;2.90;;;10.90;85.50;;;10.48;83.02;96676.38;4943258;28;20976;-74
2023/10/29 01:30:35;;;;;;;7.70;2.77;;;10.90;85.60;;;10.30;83.31;96679.31;4961401;28;20476;-73
2023/10/29 01:33:03;;;;;;;2.60;1.90;;;10.80;85.50;;;10.30;83.62;96669.31;4968727;28;20531;-73
2023/10/29 01:35:30;;;;;;;3.40;1.93;;;10.80;85.70;;;10.24;83.77;96677.63;4953136;28;20789;-74
2023/10/29 01:37:57;;;;;;;3.83;2.10;;;10.70;85.70;;;10.32;84.25;96671.78;4965420;28;20450;-74
2023/10/29 01:40:26;;;;;;;5.93;2.40;;;10.80;85.90;;;10.32;84.02;96659.13;4966718;28;20449;-72
2023/10/29 01:42:53;;;;;;;3.57;2.40;;;10.80;85.80;;;10.36;83.85;96659.41;4963027;28;20508;-73
2023/10/29 01:45:20;;;;;;;4.13;2.10;;;10.80;85.80;;;10.19;83.96;96672.94;4967461;28;20457;-73
2023/10/29 01:47:47;;;;;;;2.07;1.80;;;10.70;85.60;;;10.17;84.56;96670.47;4966041;28;20821;-72
2023/10/29 01:50:15;;;;;;;3.73;2.60;;;10.70;85.70;;;10.17;84.60;96667.78;4964587;28;20507;-77
2023/10/29 01:52:42;;;;;;;3.70;2.23;;;10.70;86.00;;;10.17;84.50;96664.28;4967779;28;20461;-73
2023/10/29 01:55:09;;;;;;;6.17;2.77;;;10.70;85.80;;;10.09;84.72;96662.81;4958621;28;20524;-76
2023/10/29 01:57:38;;;;;;;2.93;2.47;;;10.70;86.00;;;10.07;84.95;96660.34;4952698;28;21738;-75
2023/10/29 02:00:08;;;;;;;4.23;2.50;;;10.70;85.90;;;10.01;85.27;96653.25;4968611;28;20485;-76
2023/10/29 02:02:35;;;;;;;2.20;2.00;;;10.60;85.80;;;10.15;84.50;96661.00;4969507;28;20583;-75
2023/10/29 02:05:04;;;;;;;3.90;2.67;;;10.70;85.90;;;10.18;84.59;96655.91;4972168;28;21529;-75
2023/10/29 02:07:32;;;;;;;4.37;2.50;;;10.70;85.90;;;10.25;84.22;96660.34;4984512;28;20453;-75
2023/10/29 02:09:59;;;;;;;5.53;2.37;;;10.80;85.70;;;10.24;84.11;96664.13;4971274;28;20559;-74
2023/10/29 02:12:26;;;;;;;2.20;2.00;;;10.80;85.70;;;10.24;84.22;96648.72;4968116;28;21198;-75
2023/10/29 02:14:54;;;;;;;3.00;2.03;;;10.80;85.80;;;9.88;83.75;96608.50;4951978;28;20463;-74
2023/10/29 02:17:24;;;;;;;6.10;2.67;;;10.80;85.60;;;10.26;83.08;96651.19;4968142;28;20458;-76
2023/10/29 02:19:54;;;;;;;4.40;2.10;;;10.80;85.40;;;10.17;84.08;96637.28;4968199;28;20544;-72
2023/10/29 02:22:23;;;;;;;3.50;2.40;;;10.80;85.30;;;10.15;83.32;96640.22;4968835;28;20478;-75
2023/10/29 02:24:50;;;;;;;2.57;2.00;;;10.80;85.10;;;10.29;82.78;96629.91;4984347;28;20456;-76
2023/10/29 02:27:18;;;;;;;3.13;1.90;;;10.80;85.10;;;10.31;82.23;96635.06;4953999;28;20502;-76
2023/10/29 02:29:45;;;;;;;2.93;2.00;;;10.90;84.80;;;10.26;82.35;96640.41;4973186;28;20570;-75
2023/10/29 02:32:12;;;;;;;2.50;1.80;;;10.90;84.80;;;10.47;82.29;96636.16;4969381;28;20457;-75
2023/10/29 02:34:40;;;;;;;3.30;2.00;;;10.90;84.70;;;10.49;81.94;96642.91;4969681;28;20464;-75
2023/10/29 02:37:07;;;;;;;4.50;2.07;;;10.90;85.00;;;10.36;81.55;96640.53;4970465;28;20457;-75
2023/10/29 02:39:35;;;;;;;3.70;2.10;;;10.90;84.50;;;10.39;81.12;96634.66;4968948;28;20460;-75
2023/10/29 02:42:03;;;;;;;2.00;1.80;;;11.00;84.40;;;10.38;80.79;96632.19;4968708;28;20474;-76
2023/10/29 02:44:30;;;;;;;2.13;1.87;;;10.90;84.00;;;10.44;80.74;96636.63;4969102;28;20531;-75
2023/10/29 02:46:57;;;;;;;2.97;1.63;;;10.90;84.00;;;10.40;80.05;96641.69;4968818;28;21135;-76
2023/10/29 02:49:24;;;;;;;2.17;1.87;;;11.00;83.90;;;10.47;80.34;96652.34;4976281;28;20457;-76
2023/10/29 02:51:51;;;;;;;3.23;2.10;;;11.00;83.60;;;10.62;78.96;96654.44;4958017;28;20845;-73
2023/10/29 02:54:19;;;;;;;4.70;1.60;;;11.10;83.60;;;10.65;79.11;96663.94;4954123;28;20470;-73
2023/10/29 02:56:47;;;;;;;7.03;2.10;;;11.10;83.20;;;10.62;78.10;96654.44;4956601;28;20939;-73
2023/10/29 02:59:14;;;;;;;3.27;1.93;;;11.20;82.70;;;10.61;77.55;96660.91;4969765;28;20457;-73
2023/10/29 03:01:41;;;;;;;5.93;2.07;;;11.20;82.60;;;10.79;77.63;96661.66;4985598;28;20488;-72
2023/10/29 03:04:08;;;;;;;3.03;1.70;;;11.30;82.50;;;10.76;77.14;96665.69;4971557;28;20466;-73
2023/10/29 03:06:39;;;;;;;2.10;1.60;;;11.30;82.10;;;10.75;76.80;96656.78;4958045;28;20445;-72
2023/10/29 03:09:06;;;;;;;3.90;2.00;;;11.30;82.00;;;10.84;76.35;96664.44;4940091;28;20462;-77
2023/10/29 03:11:34;;;;;;;2.43;1.90;;;11.40;81.80;;;10.74;76.71;96648.91;4964960;28;20923;-74
2023/10/29 03:14:02;;;;;;;4.10;2.50;;;11.30;81.60;;;10.61;76.22;96631.19;4959288;28;20458;-75
2023/10/29 03:16:30;;;;;;;1.93;1.70;;;11.30;81.60;;;10.71;77.45;96652.94;4970350;28;20449;-75
2023/10/29 03:18:57;;;;;;;3.20;1.80;;;11.20;82.10;;;10.63;77.16;96650.66;4954058;28;21233;-75
2023/10/29 03:21:24;;;;;;;2.50;2.30;;;11.10;81.90;;;10.62;77.79;96654.44;4945295;28;20450;-75
2023/10/29 03:23:52;;;;;;;6.33;1.93;;;11.10;82.30;;;10.55;77.75;96648.41;4945249;28;20488;-73
2023/10/29 03:26:19;;;;;;;3.07;1.80;;;11.10;82.00;;;10.47;78.72;96636.16;4969648;28;20562;-75
2023/10/29 03:28:45;;;;;;;3.83;2.37;;;11.10;82.20;;;10.37;78.92;96620.56;4964003;28;20458;-74
2023/10/29 03:31:16;;;;;;;4.10;1.73;;;11.00;82.40;;;10.26;79.68;96608.00;4969896;28;20747;-73
2023/10/29 03:33:43;;;;;;;2.53;2.00;;;10.90;82.40;;;10.30;79.45;96607.22;4971014;28;20923;-74
2023/10/29 03:36:12;;;;;;;2.50;1.90;;;10.90;82.80;;;10.13;80.43;96618.06;4965396;28;20521;-73
2023/10/29 03:38:40;;;;;;;2.50;1.73;;;10.70;82.90;;;9.74;81.16;96569.44;4958233;28;20470;-73
2023/10/29 03:41:07;;;;;;;2.50;2.23;;;10.60;83.20;;;9.55;81.73;96550.81;4967966;28;20506;-73
2023/10/29 03:43:34;;;;;;;3.80;1.83;;;10.50;83.40;;;9.85;81.78;96621.66;4966749;28;20506;-72
2023/10/29 03:46:02;;;;;;;2.37;1.87;;;10.50;83.60;;;9.72;82.80;96625.50;4975546;28;20443;-74
2023/10/29 03:48:30;;;;;;;1.80;1.50;;;10.40;84.10;;;9.72;83.23;96625.50;4972042;28;20950;-75
2023/10/29 03:51:02;;;;;;;4.43;2.63;;;10.40;83.90;;;9.77;82.83;96628.28;4963991;28;20458;-74
2023/10/29 03:53:29;;;;;;;2.40;1.87;;;10.40;84.00;;;9.70;83.09;96630.34;4960622;28;20445;-74
2023/10/29 03:56:00;;;;;;;1.93;1.83;;;10.30;84.00;;;9.59;83.54;96619.34;4964672;28;20461;-74
2023/10/29 03:58:27;;;;;;;3.57;1.90;;;10.30;84.00;;;9.59;83.59;96615.84;4953728;28;20457;-74
2023/10/29 04:00:56;;;;;;;3.70;2.30;;;10.30;84.00;;;9.55;83.38;96603.91;4957685;28;20498;-72
2023/10/29 04:03:23;;;;;;;3.93;2.17;;;10.30;84.00;;;9.66;83.40;96604.91;4961638;28;20495;-74
2023/10/29 04:05:51;;;;;;;3.40;2.23;;;10.30;83.90;;;9.59;83.08;96600.47;4975963;28;20577;-75
2023/10/29 04:08:18;;;;;;;3.93;2.10;;;10.30;84.00;;;9.58;83.55;96592.66;4961412;28;20451;-75
2023/10/29 04:10:45;;;;;;;2.23;1.60;;;10.30;83.90;;;9.56;82.58;96589.38;4958932;28;20453;-75
2023/10/29 04:13:12;;;;;;;2.00;1.73;;;10.20;83.80;;;9.19;82.50;96528.66;4956204;28;20456;-73
2023/10/29 04:15:40;;;;;;;4.03;1.50;;;10.30;83.70;;;9.60;82.53;96585.94;4963061;28;20528;-74
2023/10/29 04:18:07;;;;;;;2.53;1.63;;;10.30;83.60;;;9.59;82.93;96584.31;4985245;28;20461;-73
2023/10/29 04:20:34;;;;;;;3.23;1.50;;;10.20;83.60;;;9.58;82.00;96573.78;4973183;28;20906;-74
2023/10/29 04:23:02;;;;;;;3.70;1.70;;;10.20;83.60;;;9.59;81.87;96575.41;4972967;28;20879;-73
2023/10/29 04:25:29;;;;;;;4.27;1.50;;;10.20;83.40;;;9.60;82.03;96568.97;4958725;28;20454;-74
2023/10/29 04:27:57;;;;;;;1.67;1.40;;;10.20;83.40;;;9.60;81.47;96556.28;4972141;28;20439;-74
2023/10/29 04:30:24;;;;;;;1.70;1.60;;;10.20;83.10;;;9.66;80.56;96567.16;4961786;28;20843;-75
2023/10/29 04:32:51;;;;;;;1.43;1.33;;;10.30;83.10;;;9.68;80.70;96562.34;4972995;28;20454;-74
2023/10/29 04:35:18;;;;;;;1.50;1.40;;;10.30;83.10;;;9.71;80.52;96564.53;4955338;28;20852;-76
2023/10/29 04:37:45;;;;;;;1.70;1.30;;;10.30;82.90;;;9.69;81.36;96561.28;4950941;28;20490;-76
2023/10/29 04:40:15;;;;;;;4.03;1.40;;;10.30;83.00;;;9.55;80.82;96550.81;4951931;28;21026;-75
2023/10/29 04:42:42;;;;;;;2.47;1.50;;;10.20;82.90;;;9.59;80.62;96561.94;4967733;28;20480;-73
2023/10/29 04:45:11;;;;;;;1.50;1.40;;;10.20;82.60;;;9.65;79.73;96560.94;4968327;28;20504;-75
2023/10/29 04:47:38;;;;;;;1.90;1.53;;;10.30;82.40;;;9.63;80.73;96555.81;4949119;28;20890;-76
2023/10/29 04:50:07;;;;;;;2.30;1.63;;;10.30;82.50;;;9.64;80.16;96548.53;4967181;28;20483;-74
2023/10/29 04:52:34;;;;;;;1.50;1.40;;;10.30;82.40;;;9.54;80.70;96548.34;4966422;28;20922;-74
2023/10/29 04:55:01;;;;;;;2.90;1.77;;;10.20;82.50;;;9.49;80.67;96546.41;4971642;28;20472;-75
2023/10/29 04:57:30;;;;;;;2.10;1.53;;;10.20;82.60;;;9.50;80.90;96553.44;4973973;28;20512;-74
2023/10/29 04:59:57;;;;;;;1.97;1.23;;;10.20;83.10;;;9.43;80.60;96550.06;4978847;28;20516;-76
2023/10/29 05:02:24;;;;;;;1.40;1.30;;;10.10;82.70;;;9.42;81.55;96556.53;4949104;28;20470;-75
2023/10/29 05:04:52;;;;;;;2.13;1.20;;;10.00;82.80;;;9.46;81.06;96558.50;4965175;28;20456;-71
2023/10/29 05:07:19;;;;;;;2.00;1.30;;;10.00;82.90;;;9.42;81.59;96551.13;4973000;28;20464;-74
2023/10/29 05:09:47;;;;;;;2.00;1.40;;;10.00;83.00;;;9.38;82.14;96561.56;4967251;28;20455;-72
2023/10/29 05:12:14;;;;;;;3.10;1.33;;;10.00;83.00;;;9.38;80.99;96566.16;4968799;28;20733;-71
2023/10/29 05:14:43;;;;;;;2.80;1.67;;;9.90;84.10;;;9.34;81.39;96560.44;4964851;28;20943;-71
2023/10/29 05:17:11;;;;;;;1.80;1.40;;;9.90;84.10;;;9.28;81.35;96558.72;4964028;28;20509;-72
2023/10/29 05:19:39;;;;;;;2.23;1.50;;;9.90;84.20;;;9.26;81.46;96541.97;4967681;28;20581;-72
2023/10/29 05:22:06;;;;;;;2.00;1.30;;;9.90;84.00;;;9.32;81.48;96552.56;4951385;28;20463;-72
2023/10/29 05:24:33;;;;;;;4.77;1.43;;;10.00;82.90;;;9.35;81.32;96557.50;4959584;28;20535;-72
2023/10/29 05:27:00;;;;;;;2.80;1.20;;;10.00;82.80;;;9.28;81.02;96539.84;4950878;28;20449;-72
2023/10/29 05:29:28;;;;;;;1.40;1.30;;;10.00;82.70;;;9.37;80.88;96542.97;4952561;28;20459;-72
2023/10/29 05:31:56;;;;;;;2.10;1.23;;;10.00;82.60;;;9.34;81.07;96544.25;4959913;28;20956;-71
2023/10/29 05:34:23;;;;;;;1.33;1.20;;;10.00;82.70;;;9.27;81.25;96547.09;4968324;28;20560;-73
2023/10/29 05:36:51;;;;;;;1.40;1.30;;;10.00;82.70;;;9.30;81.02;96554.69;4951725;28;20565;-71
2023/10/29 05:39:18;;;;;;;2.93;1.53;;;9.90;83.80;;;9.24;81.82;96547.59;4947397;28;20473;-71
2023/10/29 05:41:45;;;;;;;1.90;1.50;;;9.90;83.90;;;9.23;81.61;96543.28;4973593;28;20459;-71
2023/10/29 05:44:14;;;;;;;1.77;1.33;;;9.90;84.00;;;9.26;82.18;96542.78;4950249;28;20495;-72
2023/10/29 05:46:41;;;;;;;3.10;1.40;;;9.90;83.90;;;9.32;82.14;96546.38;4962670;28;20489;-72
2023/10/29 05:49:09;;;;;;;1.33;1.23;;;9.90;83.90;;;9.28;81.79;96540.66;4945842;28;20780;-72
2023/10/29 05:51:38;;;;;;;1.70;1.10;;;9.90;84.00;;;9.25;80.67;96535.75;4966524;28;20870;-72
2023/10/29 05:54:05;;;;;;;1.53;1.40;;;9.90;83.70;;;9.34;81.35;96542.41;4962089;28;20471;-72
2023/10/29 05:56:32;;;;;;;3.33;1.70;;;10.00;82.90;;;9.39;80.49;96535.44;4952082;28;20456;-72
2023/10/29 05:59:00;;;;;;;3.87;1.33;;;10.00;82.90;;;9.32;81.87;96555.28;4965930;28;20527;-72
2023/10/29 06:01:27;;;;;;;3.90;1.50;;;10.00;82.80;;;9.29;80.88;96542.28;4945318;28;20456;-73
2023/10/29 06:03:54;;;;;;;1.60;1.50;;;10.00;82.70;;;9.35;81.30;96545.88;4965037;28;20485;-73
2023/10/29 06:06:22;;;;;;;1.40;1.30;;;10.00;82.60;;;9.33;81.51;96542.63;4971999;28;20457;-72
2023/10/29 06:08:49;;;;;;;1.50;1.30;;;10.00;82.70;;;9.30;81.11;96541.22;4963981;28;20473;-72
2023/10/29 06:11:17;;;;;;;3.20;1.90;;;10.00;83.10;;;9.30;81.79;96543.91;4969118;28;20460;-71
2023/10/29 06:13:44;;;;;;;1.40;1.13;;;10.00;82.80;;;9.28;81.53;96554.13;4965381;28;20457;-72
2023/10/29 06:16:11;;;;;;;2.53;1.30;;;10.00;82.80;;;9.33;81.07;96564.19;4964890;28;20445;-72
2023/10/29 06:18:39;;;;;;;1.43;1.20;;;10.00;82.70;;;9.42;80.91;96581.63;4951375;28;20457;-72
2023/10/29 06:21:06;;;;;;;1.73;1.40;;;10.00;82.60;;;9.59;81.13;96594.28;4965131;28;20449;-72
2023/10/29 06:23:34;;;;;;;1.30;1.20;;;10.10;82.80;;;9.63;80.01;96585.47;4966413;28;20481;-72
2023/10/29 06:26:01;;;;;;;1.77;1.30;;;10.20;82.50;;;9.59;79.82;96584.31;4958244;28;20453;-72
2023/10/29 06:28:28;;;;;;;2.73;1.47;;;10.20;82.30;;;9.60;80.69;96585.94;4960048;28;20460;-71
2023/10/29 06:30:55;;;;;;;1.60;1.50;;;10.20;82.40;;;9.71;79.45;96573.47;4966667;28;20673;-72
2023/10/29 06:33:23;;;;;;;1.67;1.43;;;10.20;82.30;;;9.64;79.74;96576.31;4957850;28;20477;-72
2023/10/29 06:35:50;;;;;;;2.67;1.60;;;10.20;82.30;;;9.54;78.90;96554.56;4965529;28;20461;-73
2023/10/29 06:38:17;;;;;;;3.40;1.23;;;10.30;82.00;;;9.72;78.88;96590.44;4948965;28;20947;-73
2023/10/29 06:40:46;;;;;;;3.70;1.63;;;10.30;81.90;;;9.98;78.35;96596.25;4966685;28;20520;-73
2023/10/29 06:43:13;;;;;;;3.57;1.70;;;10.50;82.10;;;10.03;77.79;96599.03;4970483;28;20477;-73
2023/10/29 06:45:40;;;;;;;2.00;1.50;;;10.60;81.70;;;9.99;77.50;96597.88;4956190;28;20500;-73
2023/10/29 06:48:07;;;;;;;1.43;1.33;;;10.60;81.60;;;9.72;77.21;96533.81;4974190;28;21355;-73
2023/10/29 06:50:35;;;;;;;2.37;1.30;;;10.60;81.50;;;10.24;76.97;96602.03;4967973;28;20470;-72
2023/10/29 06:53:05;;;;;;;2.60;1.17;;;10.70;81.40;;;10.31;76.44;96603.50;4964227;28;21016;-73
2023/10/29 06:55:32;;;;;;;3.93;1.50;;;10.80;81.30;;;10.17;76.47;96599.50;4946794;28;20867;-72
2023/10/29 06:58:01;;;;;;;2.77;1.33;;;10.80;81.10;;;10.06;77.17;96603.91;4965563;28;20457;-74
2023/10/29 07:00:29;;;;;;;1.30;1.20;;;10.70;80.80;;;10.18;76.67;96601.94;4965187;28;20461;-74
2023/10/29 07:02:56;;;;;;;2.60;1.40;;;10.70;81.00;;;10.32;76.14;96596.19;4965197;28;20485;-73
2023/10/29 07:05:25;;;;;;;2.13;1.40;;;10.80;81.00;;;10.16;76.11;96620.28;4973157;28;20458;-73
2023/10/29 07:07:52;;;;;;;1.30;1.20;;;10.90;80.50;;;10.31;75.46;96619.69;4966238;28;20964;-72
2023/10/29 07:10:19;;;;;;;3.30;1.57;;;10.90;80.60;;;10.30;76.13;96622.63;4966922;28;20545;-73
2023/10/29 07:12:47;;;;;;;1.23;1.13;;;10.90;80.50;;;10.36;76.14;96627.03;4966609;28;20461;-72
2023/10/29 07:15:16;;;;;;;2.40;1.33;;;10.90;80.50;;;10.51;74.53;96631.03;4963330;28;20468;-73
2023/10/29 07:17:43;;;;;;;2.03;1.60;;;11.00;80.50;;;10.64;74.21;96633.38;4968464;28;20457;-73
2023/10/29 07:20:13;;;;;;;1.40;1.30;;;11.10;80.40;;;10.67;74.13;96646.38;4966347;28;20551;-73
2023/10/29 07:22:40;;;;;;;1.50;1.40;;;11.20;79.90;;;10.46;74.52;96619.09;4982690;28;20465;-73
2023/10/29 07:25:08;;;;;;;3.13;1.80;;;11.20;79.60;;;10.54;74.35;96625.97;4969058;28;20544;-73
2023/10/29 07:27:35;;;;;;;2.93;1.60;;;11.10;79.70;;;10.62;74.08;96613.91;4967459;28;20791;-73
2023/10/29 07:30:03;;;;;;;1.90;1.70;;;11.20;79.70;;;10.79;73.24;96613.03;4967862;28;20457;-73
2023/10/29 07:32:32;;;;;;;1.97;1.60;;;11.30;79.50;;;11.12;74.84;96617.50;4963364;28;21178;-71
2023/10/29 07:34:59;;;;;;;1.50;1.40;;;11.50;80.50;;;11.06;72.34;96613.09;4972467;28;20514;-71
2023/10/29 07:37:26;;;;;;;2.60;1.63;;;11.60;79.20;;;11.08;72.44;96613.66;4956705;28;20520;-71
2023/10/29 07:39:54;;;;;;;1.80;1.70;;;11.60;79.30;;;10.85;72.55;96603.94;4968329;28;20462;-71
2023/10/29 07:42:21;;;;;;;2.10;1.63;;;11.50;78.90;;;11.11;72.42;96596.94;4967173;28;21257;-71
2023/10/29 07:44:48;;;;;;;2.53;1.20;;;11.60;79.40;;;11.36;71.52;96597.47;4970370;28;20571;-69
2023/10/29 07:47:15;;;;;;;2.03;1.37;;;11.80;79.00;;;11.22;71.73;96624.91;4967437;28;20456;-71
2023/10/29 07:49:44;;;;;;;1.77;1.30;;;11.80;78.60;;;11.14;71.65;96646.97;4965605;28;20450;-71
2023/10/29 07:52:11;;;;;;;1.40;1.23;;;11.80;78.60;;;11.22;71.52;96661.91;4980434;28;20516;-72
2023/10/29 07:54:38;;;;;;;1.67;1.57;;;11.70;78.50;;;11.24;72.48;96674.13;4965970;28;20462;-70
2023/10/29 07:57:06;;;;;;;1.63;1.53;;;11.70;78.90;;;10.94;74.27;96688.88;4951793;28;21162;-73
2023/10/29 07:59:33;;;;;;;1.70;1.60;;;11.60;79.40;;;10.98;75.65;96684.59;4967013;28;20459;-70
2023/10/29 08:02:01;;;;;;;1.97;1.70;;;11.60;80.40;;;11.08;74.82;96689.34;4971058;28;20464;-72
2023/10/29 08:04:28;;;;;;;2.33;1.60;;;11.60;80.30;;;11.16;75.18;96669.97;4963431;28;20584;-70
2023/10/29 08:06:57;;;;;;;2.00;1.50;;;11.70;80.40;;;10.97;74.99;96668.66;4962273;28;20469;-70
2023/10/29 08:09:24;;;;;;;2.30;1.40;;;11.60;79.90;;;10.85;76.19;96649.88;4956302;28;20461;-69
2023/10/29 08:11:51;;;;;;;4.50;2.13;;;11.50;80.40;;;10.80;76.48;96663.31;4969027;28;20475;-69
2023/10/29 08:14:18;;;;;;;1.57;1.47;;;11.50;80.60;;;10.77;76.79;96675.44;4948147;28;20613;-70
2023/10/29 08:16:45;;;;;;;3.10;1.63;;;11.40;80.60;;;10.84;76.96;96683.34;4935618;28;20451;-70
2023/10/29 08:19:13;;;;;;;5.37;2.10;;;11.40;80.70;;;10.84;76.41;96694.16;4961041;28;20451;-69
2023/10/29 08:21:40;;;;;;;4.00;1.83;;;11.40;80.70;;;10.81;77.05;96678.44;4965288;28;20942;-69
2023/10/29 08:24:09;;;;;;;3.83;2.17;;;11.40;80.80;;;10.94;76.35;96683.47;4961774;28;21060;-69
2023/10/29 08:26:36;;;;;;;4.57;2.83;;;11.50;81.00;;;11.07;76.31;96687.72;4964953;28;20521;-69
2023/10/29 08:29:04;;;;;;;2.43;2.23;;;11.60;80.90;;;11.08;76.01;96683.13;4957507;28;20537;-70
2023/10/29 08:31:31;;;;;;;3.90;3.43;;;11.70;80.80;;;11.15;75.74;96695.38;4969903;28;20489;-70
2023/10/29 08:33:58;;;;;;;2.67;2.47;;;11.70;80.60;;;11.34;75.08;96687.75;4966226;28;20488;-69
2023/10/29 08:36:25;;;;;;;2.50;2.07;;;11.80;80.70;;;11.46;74.80;96700.34;4964548;28;20458;-69
2023/10/29 08:38:53;;;;;;;2.80;1.80;;;11.90;80.50;;;11.61;73.82;96678.88;4965461;28;20462;-69
2023/10/29 08:41:21;;;;;;;3.63;2.00;;;12.10;80.30;;;11.58;74.04;96668.53;4948142;28;20952;-70
2023/10/29 08:43:48;;;;;;;1.90;1.80;;;12.10;80.20;;;11.70;73.51;96656.75;4962255;28;20492;-69
2023/10/29 08:46:15;;;;;;;2.50;1.90;;;12.20;80.00;;;11.83;73.88;96652.78;4940911;28;21172;-70
2023/10/29 08:48:42;;;;;;;6.17;2.47;;;12.30;80.10;;;12.06;72.96;96640.88;4966329;28;20942;-70
2023/10/29 08:51:11;;;;;;;2.07;1.40;;;12.50;80.00;;;12.12;72.19;96618.16;4967918;28;20572;-71
2023/10/29 08:53:38;;;;;;;1.47;1.37;;;12.60;79.50;;;12.46;71.94;96623.25;4963774;28;20468;-69
2023/10/29 08:56:07;;;;;;;4.83;1.70;;;12.90;79.80;;;12.71;70.55;96619.06;4963013;28;20911;-72
2023/10/29 08:58:37;;;;;;;2.17;1.27;;;13.10;79.30;;;12.65;69.88;96622.81;4967692;28;20445;-70
2023/10/29 09:01:10;;;;;;;2.20;1.50;;;13.10;78.80;;;12.75;69.91;96627.47;4964490;28;20906;-70
2023/10/29 09:03:38;;;;;;;1.87;1.33;;;13.10;78.70;;;12.65;69.75;96641.78;4947845;28;20954;-71
2023/10/29 09:06:07;;;;;;;2.53;1.40;;;13.20;78.40;;;12.65;69.72;96630.94;4955514;28;20485;-70
2023/10/29 09:08:34;;;;;;;4.40;1.70;;;13.20;78.50;;;12.79;70.16;96650.25;4943263;28;20441;-70
2023/10/29 09:11:02;;;;;;;2.73;1.63;;;13.30;78.50;;;13.20;68.65;96659.66;4966909;28;20458;-69
2023/10/29 09:13:30;;;;;;;1.80;1.70;;;13.50;78.40;;;13.24;67.18;96656.13;4964769;28;20486;-69
2023/10/29 09:15:59;;;;;;;5.17;1.77;;;13.70;77.30;;;13.23;67.63;96680.81;4966047;28;20455;-70
2023/10/29 09:18:26;;;;;;;2.20;1.30;;;13.60;77.30;;;13.23;67.89;96689.75;4964267;28;20494;-68
2023/10/29 09:20:54;;;;;;;2.50;1.60;;;13.70;77.50;;;13.39;68.42;96692.53;4961850;28;20505;-70
2023/10/29 09:23:23;;;;;;;3.60;1.47;;;13.70;77.90;;;13.46;66.63;96690.44;4960268;28;20468;-70
2023/10/29 09:25:51;;;;;;;2.03;1.80;;;13.80;77.10;;;13.63;65.46;96694.81;4964343;28;21294;-70
2023/10/29 09:28:21;;;;;;;1.20;1.10;;;13.90;76.10;;;13.99;64.25;96682.13;4965263;28;20470;-70
2023/10/29 09:30:48;;;;;;;3.23;1.30;;;14.20;76.00;;;14.07;63.82;96680.75;4947336;28;20461;-69
2023/10/29 09:33:17;;;;;;;2.23;1.43;;;14.40;75.40;;;14.27;62.52;96682.66;4965082;28;20460;-69
2023/10/29 09:35:44;;;;;;;1.57;1.47;;;14.60;74.30;;;14.60;60.55;96685.06;4975645;28;20833;-69
2023/10/29 09:38:11;;;;;;;2.13;1.73;;;14.80;73.10;;;14.63;59.96;96686.44;4973046;28;20519;-69
2023/10/29 09:40:38;;;;;;;2.50;1.53;;;15.00;72.30;;;14.83;60.07;96672.03;4943512;28;20829;-69
2023/10/29 09:43:08;;;;;;;3.83;1.83;;;15.20;72.20;;;15.06;59.07;96675.19;4962785;28;20452;-71
2023/10/29 09:45:45;;;;;;;1.50;1.40;;;15.40;71.50;;;15.06;58.17;96691.53;4962877;28;20476;-71
2023/10/29 09:48:14;;;;;;;1.60;1.50;;;15.50;70.80;;;14.99;58.74;96683.66;4958828;28;20459;-70
2023/10/29 09:50:44;;;;;;;2.93;1.60;;;15.40;70.50;;;14.93;58.35;96693.72;4965925;28;20461;-68
2023/10/29 09:53:13;;;;;;;2.77;1.50;;;15.50;70.20;;;14.97;58.52;96692.09;4957042;28;20456;-71
2023/10/29 09:55:40;;;;;;;2.10;1.77;;;15.40;70.10;;;15.37;58.14;96702.28;4969547;28;21102;-68
2023/10/29 09:58:09;;;;;;;3.20;1.53;;;15.70;70.20;;;15.38;57.34;96698.47;4961910;28;20546;-71
2023/10/29 10:00:37;;;;;;;2.00;1.60;;;15.80;69.50;;;15.34;58.30;96703.69;4949670;28;20548;-69
2023/10/29 10:03:04;;;;;;;2.30;1.70;;;15.80;69.80;;;15.54;56.85;96705.50;4964662;28;20471;-69
2023/10/29 10:05:32;;;;;;;3.37;2.20;;;15.90;69.10;;;15.78;55.87;96704.81;4965171;28;20489;-70
2023/10/29 10:08:01;;;;;;;1.60;1.50;;;16.00;68.10;;;15.70;55.20;96716.31;4960716;28;20470;-68
2023/10/29 10:10:40;;;;;;;2.20;1.47;;;16.10;67.40;;;15.82;55.78;96730.38;4940665;28;20519;-68
2023/10/29 10:13:07;;;;;;;2.70;1.30;;;16.10;67.90;;;15.79;55.68;96724.69;4967642;28;20457;-68
2023/10/29 10:15:35;;;;;;;2.13;1.20;;;16.10;67.40;;;15.62;56.01;96720.44;4964494;28;20476;-70
2023/10/29 10:18:05;;;;;;;1.30;1.20;;;16.00;67.70;;;15.72;56.50;96719.56;4965419;28;20455;-70
2023/10/29 10:20:33;;;;;;;3.17;1.50;;;16.00;68.00;;;15.78;56.00;96720.34;4965761;28;21008;-69
2023/10/29 10:23:05;;;;;;;2.00;1.50;;;16.00;67.60;;;15.98;56.24;96720.25;4979897;28;20469;-68
2023/10/29 10:25:33;;;;;;;1.57;1.47;;;16.20;68.00;;;15.61;56.45;96701.63;4961609;28;20484;-69